createdAt,value
2022-10-24T00:01:18.897Z,14.82
2022-10-24T00:03:47.464Z,15.57
2022-10-24T00:06:14.834Z,16.12
2022-10-24T00:08:42.700Z,16.33
2022-10-24T00:11:15.235Z,16.35
2022-10-24T00:13:42.789Z,16.92
2022-10-24T00:16:10.678Z,17.65
2022-10-24T00:18:38.033Z,17.52
2022-10-24T00:21:05.564Z,14.93
2022-10-24T00:23:33.164Z,15.25
2022-10-24T00:26:02.050Z,17.30
2022-10-24T00:28:30.594Z,16.27
2022-10-24T00:30:58.194Z,17.45
2022-10-24T00:33:25.595Z,16.52
2022-10-24T00:35:52.917Z,16.92
2022-10-24T00:38:20.848Z,17.75
2022-10-24T00:40:48.150Z,17.23
2022-10-24T00:43:20.774Z,16.17
2022-10-24T00:45:58.701Z,17.10
2022-10-24T00:48:37.994Z,17.10
2022-10-24T00:51:14.532Z,14.05
2022-10-24T00:53:44.841Z,18.10
2022-10-24T00:56:12.695Z,15.82
2022-10-24T00:58:40.122Z,18.02
2022-10-24T01:01:09.130Z,16.48
2022-10-24T01:03:36.846Z,17.42
2022-10-24T01:06:22.343Z,17.33
2022-10-24T01:09:00.121Z,15.98
2022-10-24T01:11:40.198Z,17.05
2022-10-24T01:14:13.619Z,16.23
2022-10-24T01:16:43.676Z,20.33
2022-10-24T01:19:20.365Z,16.35
2022-10-24T01:24:37.828Z,16.95
2022-10-24T01:29:48.309Z,17.15
2022-10-24T01:32:50.913Z,15.82
2022-10-24T01:35:26.335Z,16.00
2022-10-24T01:37:55.552Z,15.48
2022-10-24T01:40:46.057Z,17.25
2022-10-24T01:43:14.036Z,18.02
2022-10-24T01:45:43.705Z,16.58
2022-10-24T01:48:14.299Z,16.23
2022-10-24T01:50:42.040Z,16.35
2022-10-24T01:53:09.432Z,17.23
2022-10-24T01:55:36.777Z,17.60
2022-10-24T01:58:04.378Z,19.62
2022-10-24T02:00:31.778Z,18.02
2022-10-24T02:03:01.997Z,18.75
2022-10-24T02:05:32.530Z,17.92
2022-10-24T02:08:06.346Z,17.42
2022-10-24T02:10:36.215Z,17.30
2022-10-24T02:13:06.002Z,19.17
2022-10-24T02:15:37.303Z,18.58
2022-10-24T02:18:04.693Z,17.00
2022-10-24T02:20:43.273Z,15.70
2022-10-24T02:23:17.012Z,16.33
2022-10-24T02:28:20.426Z,16.73
2022-10-24T02:30:56.438Z,17.10
2022-10-24T02:33:24.021Z,15.68
2022-10-24T02:35:52.612Z,15.27
2022-10-24T02:38:26.823Z,17.85
2022-10-24T02:40:54.737Z,15.10
2022-10-24T02:43:22.307Z,16.35
2022-10-24T02:45:50.846Z,14.23
2022-10-24T02:48:19.631Z,15.07
2022-10-24T02:50:47.119Z,15.35
2022-10-24T02:53:16.033Z,16.37
2022-10-24T02:55:43.635Z,16.83
2022-10-24T02:58:10.970Z,16.23
2022-10-24T03:00:38.371Z,14.87
2022-10-24T03:03:05.992Z,16.17
2022-10-24T03:05:33.313Z,16.98
2022-10-24T03:08:00.662Z,15.30
2022-10-24T03:10:28.211Z,17.42
2022-10-24T03:12:55.519Z,17.25
2022-10-24T03:15:22.877Z,15.10
2022-10-24T03:17:50.471Z,17.50
2022-10-24T03:20:17.882Z,18.00
2022-10-24T03:22:45.232Z,17.35
2022-10-24T03:25:12.847Z,15.27
2022-10-24T03:27:40.215Z,19.73
2022-10-24T03:30:07.947Z,16.80
2022-10-24T03:32:35.541Z,16.73
2022-10-24T03:35:02.894Z,15.65
2022-10-24T03:37:30.224Z,16.80
2022-10-24T03:39:57.856Z,18.83
2022-10-24T03:42:25.181Z,17.10
2022-10-24T03:44:52.844Z,17.17
2022-10-24T03:47:20.461Z,17.10
2022-10-24T03:49:47.822Z,18.35
2022-10-24T03:52:15.166Z,15.93
2022-10-24T03:54:42.820Z,19.23
2022-10-24T03:57:10.218Z,17.58
2022-10-24T03:59:37.655Z,17.70
2022-10-24T04:02:05.837Z,16.23
2022-10-24T04:04:33.512Z,18.00
2022-10-24T04:07:00.930Z,17.05
2022-10-24T04:09:28.326Z,16.50
2022-10-24T04:11:55.939Z,17.12
2022-10-24T04:14:23.279Z,16.12
2022-10-24T04:16:50.584Z,16.62
2022-10-24T04:19:18.480Z,18.05
2022-10-24T04:21:47.833Z,18.58
2022-10-24T04:24:15.327Z,17.02
2022-10-24T04:26:43.101Z,16.80
2022-10-24T04:29:10.406Z,18.87
2022-10-24T04:31:37.727Z,18.73
2022-10-24T04:34:06.216Z,17.62
2022-10-24T04:36:34.052Z,18.98
2022-10-24T04:41:33.961Z,18.33
2022-10-24T04:44:01.271Z,19.65
2022-10-24T04:46:28.596Z,20.00
2022-10-24T04:48:56.174Z,19.98
2022-10-24T04:51:23.464Z,22.17
2022-10-24T04:53:51.314Z,19.98
2022-10-24T04:56:19.154Z,19.65
2022-10-24T04:58:46.464Z,21.35
2022-10-24T05:01:13.845Z,20.80
2022-10-24T05:03:41.476Z,21.67
2022-10-24T05:06:08.772Z,21.77
2022-10-24T05:08:36.373Z,21.23
2022-10-24T05:11:04.004Z,21.73
2022-10-24T05:13:34.335Z,23.70
2022-10-24T05:16:05.141Z,22.58
2022-10-24T05:18:32.671Z,23.30
2022-10-24T05:21:00.198Z,22.23
2022-10-24T05:23:27.854Z,22.62
2022-10-24T05:25:55.202Z,21.55
2022-10-24T05:28:22.677Z,20.80
2022-10-24T05:30:50.311Z,22.75
2022-10-24T05:33:17.638Z,24.20
2022-10-24T05:35:44.990Z,22.10
2022-10-24T05:38:12.558Z,23.58
2022-10-24T05:40:39.920Z,22.73
2022-10-24T05:43:07.239Z,24.33
2022-10-24T05:45:34.919Z,23.23
2022-10-24T05:48:02.272Z,24.40
2022-10-24T05:50:30.123Z,22.87
2022-10-24T05:52:57.792Z,23.02
2022-10-24T05:55:25.148Z,22.02
2022-10-24T05:57:52.675Z,26.50
2022-10-24T06:00:20.320Z,25.25
2022-10-24T06:02:47.939Z,22.80
2022-10-24T06:05:18.208Z,24.45
2022-10-24T06:07:47.217Z,24.60
2022-10-24T06:10:15.664Z,23.27
2022-10-24T06:12:43.342Z,24.10
2022-10-24T06:15:12.246Z,24.20
2022-10-24T06:17:39.901Z,24.65
2022-10-24T06:20:07.802Z,26.37
2022-10-24T06:22:35.139Z,23.98
2022-10-24T06:25:02.757Z,24.95
2022-10-24T06:27:30.119Z,23.25
2022-10-24T06:29:57.534Z,22.30
2022-10-24T06:32:25.092Z,25.17
2022-10-24T06:34:52.423Z,23.92
2022-10-24T06:37:21.774Z,23.98
2022-10-24T06:39:49.385Z,24.73
2022-10-24T06:42:16.689Z,27.55
2022-10-24T06:44:44.024Z,25.50
2022-10-24T06:47:11.600Z,26.15
2022-10-24T06:49:39.156Z,23.83
2022-10-24T06:52:06.473Z,24.98
2022-10-24T06:54:35.171Z,28.58
2022-10-24T06:57:02.568Z,26.75
2022-10-24T06:59:30.027Z,30.02
2022-10-24T07:02:01.728Z,26.30
2022-10-24T07:04:32.413Z,28.60
2022-10-24T07:07:00.091Z,29.08
2022-10-24T07:09:29.459Z,29.92
2022-10-24T07:11:56.812Z,30.50
2022-10-24T07:14:25.861Z,26.80
2022-10-24T07:16:53.560Z,27.60
2022-10-24T07:19:20.918Z,30.70
2022-10-24T07:21:48.526Z,30.83
2022-10-24T07:24:15.894Z,31.83
2022-10-24T07:26:43.285Z,28.90
2022-10-24T07:29:10.946Z,31.23
2022-10-24T07:31:38.263Z,29.90
2022-10-24T07:34:06.674Z,28.23
2022-10-24T07:36:34.341Z,28.65
2022-10-24T07:39:01.790Z,30.33
2022-10-24T07:41:30.127Z,31.83
2022-10-24T07:43:58.765Z,30.08
2022-10-24T07:46:26.206Z,32.22
2022-10-24T07:48:53.614Z,31.62
2022-10-24T07:51:21.385Z,31.10
2022-10-24T07:53:48.858Z,28.95
2022-10-24T07:56:16.805Z,32.00
2022-10-24T07:58:44.535Z,31.30
2022-10-24T08:01:16.735Z,32.85
2022-10-24T08:03:44.650Z,30.85
2022-10-24T08:06:17.120Z,32.63
2022-10-24T08:08:44.817Z,35.20
2022-10-24T08:11:21.854Z,29.83
2022-10-24T08:13:50.200Z,32.00
2022-10-24T08:16:18.180Z,35.80
2022-10-24T08:18:45.581Z,35.15
2022-10-24T08:21:14.065Z,32.80
2022-10-24T08:23:43.137Z,33.45
2022-10-24T08:26:12.957Z,33.88
2022-10-24T08:28:40.880Z,31.75
2022-10-24T08:31:11.159Z,33.78
2022-10-24T08:33:38.599Z,34.63
2022-10-24T08:36:28.212Z,32.92
2022-10-24T08:38:55.583Z,32.88
2022-10-24T08:41:26.080Z,32.58
2022-10-24T08:43:53.725Z,32.60
2022-10-24T08:46:44.258Z,33.70
2022-10-24T08:49:19.600Z,31.55
2022-10-24T08:52:04.246Z,30.80
2022-10-24T08:54:36.966Z,32.05
2022-10-24T08:57:04.663Z,31.98
2022-10-24T08:59:33.562Z,31.77
2022-10-24T09:02:05.527Z,30.05
2022-10-24T09:04:40.845Z,28.38
2022-10-24T09:07:14.118Z,30.35
2022-10-24T09:09:45.906Z,30.62
2022-10-24T09:12:17.662Z,29.17
2022-10-24T09:14:47.053Z,30.25
2022-10-24T09:20:01.163Z,28.85
2022-10-24T09:22:30.589Z,28.73
2022-10-24T09:25:02.049Z,29.37
2022-10-24T09:27:31.164Z,28.17
2022-10-24T09:29:58.934Z,29.15
2022-10-24T09:32:32.642Z,29.17
2022-10-24T09:35:01.636Z,28.90
2022-10-24T09:37:44.331Z,27.90
2022-10-24T09:40:23.653Z,30.60
2022-10-24T09:43:13.466Z,28.67
2022-10-24T09:45:49.699Z,29.37
2022-10-24T09:48:29.246Z,30.95
2022-10-24T09:50:58.331Z,29.52
2022-10-24T09:53:28.615Z,29.23
2022-10-24T09:56:08.100Z,31.95
2022-10-24T09:58:35.737Z,28.60
2022-10-24T10:01:22.821Z,32.17
2022-10-24T10:04:06.122Z,30.77
2022-10-24T10:06:36.086Z,27.95
2022-10-24T10:09:03.912Z,28.85
2022-10-24T10:11:35.273Z,32.90
2022-10-24T10:14:05.259Z,30.80
2022-10-24T10:16:38.644Z,29.55
2022-10-24T10:19:19.645Z,27.13
2022-10-24T10:21:57.946Z,27.33
2022-10-24T10:24:38.590Z,26.35
2022-10-24T10:27:24.258Z,24.95
2022-10-24T10:30:10.350Z,24.15
2022-10-24T10:32:55.754Z,23.67
2022-10-24T10:35:32.136Z,22.33
2022-10-24T10:38:19.967Z,22.98
2022-10-24T10:40:54.091Z,25.80
2022-10-24T10:43:56.400Z,21.80
2022-10-24T10:46:37.172Z,21.42
2022-10-24T10:49:39.829Z,22.52
2022-10-24T10:52:36.057Z,23.15
2022-10-24T10:55:09.231Z,22.73
2022-10-24T10:57:49.372Z,21.48
2022-10-24T11:00:35.241Z,20.65
2022-10-24T11:05:53.437Z,19.62
2022-10-24T11:08:39.877Z,19.77
2022-10-24T11:14:20.602Z,19.73
2022-10-24T11:16:48.155Z,19.65
2022-10-24T11:19:48.074Z,21.10
2022-10-24T11:22:26.524Z,21.15
2022-10-24T11:25:03.783Z,20.67
2022-10-24T11:27:42.059Z,21.20
2022-10-24T11:30:17.283Z,18.35
2022-10-24T11:32:55.070Z,19.08
2022-10-24T11:35:33.151Z,18.70
2022-10-24T11:38:17.364Z,19.23
2022-10-24T11:40:46.083Z,19.48
2022-10-24T11:43:19.631Z,20.12
2022-10-24T11:45:56.021Z,22.50
2022-10-24T11:48:29.356Z,19.45
2022-10-24T11:51:10.170Z,20.90
2022-10-24T11:53:39.357Z,20.35
2022-10-24T11:56:19.102Z,22.10
2022-10-24T11:58:49.582Z,20.48
2022-10-24T12:01:39.971Z,20.88
2022-10-24T12:04:41.757Z,19.70
2022-10-24T12:07:39.984Z,22.05
2022-10-24T12:10:16.931Z,20.90
2022-10-24T12:12:56.872Z,19.77
2022-10-24T12:15:57.134Z,20.60
2022-10-24T12:18:30.782Z,20.60
2022-10-24T12:21:03.517Z,20.25
2022-10-24T12:23:31.636Z,21.02
2022-10-24T12:26:14.473Z,19.70
2022-10-24T12:28:41.835Z,19.65
2022-10-24T12:31:22.254Z,17.62
2022-10-24T12:34:15.163Z,20.30
2022-10-24T12:37:12.017Z,18.10
2022-10-24T12:39:51.045Z,19.20
2022-10-24T12:42:19.973Z,19.55
2022-10-24T12:44:51.007Z,19.42
2022-10-24T12:47:40.237Z,21.05
2022-10-24T12:50:23.193Z,19.62
2022-10-24T12:53:29.504Z,18.70
2022-10-24T12:55:56.932Z,19.52
2022-10-24T12:58:44.573Z,22.87
2022-10-24T13:01:24.313Z,20.83
2022-10-24T13:03:53.381Z,20.00
2022-10-24T13:06:35.844Z,20.45
2022-10-24T13:09:38.422Z,19.17
2022-10-24T13:12:43.425Z,22.10
2022-10-24T13:15:45.532Z,22.40
2022-10-24T13:18:25.574Z,19.90
2022-10-24T13:21:12.659Z,21.02
2022-10-24T13:23:46.705Z,21.45
2022-10-24T13:26:40.073Z,19.30
2022-10-24T13:29:23.553Z,22.73
2022-10-24T13:31:51.563Z,20.35
2022-10-24T13:34:19.717Z,20.70
2022-10-24T13:36:58.221Z,23.65
2022-10-24T13:39:27.952Z,22.45
2022-10-24T13:42:01.346Z,22.87
2022-10-24T13:44:45.302Z,24.85
2022-10-24T13:47:15.474Z,24.37
2022-10-24T13:50:21.334Z,21.83
2022-10-24T13:55:25.394Z,22.25
2022-10-24T13:58:15.392Z,24.42
2022-10-24T14:00:45.069Z,25.27
2022-10-24T14:03:17.553Z,24.65
2022-10-24T14:05:52.433Z,22.87
2022-10-24T14:08:31.361Z,25.10
2022-10-24T14:11:00.753Z,25.37
2022-10-24T14:13:29.647Z,25.60
2022-10-24T14:15:58.753Z,24.75
2022-10-24T14:18:26.184Z,27.02
2022-10-24T14:20:55.794Z,23.00
2022-10-24T14:23:29.754Z,24.55
2022-10-24T14:26:00.013Z,25.50
2022-10-24T14:28:31.847Z,25.85
2022-10-24T14:31:04.620Z,25.08
2022-10-24T14:33:33.341Z,26.40
2022-10-24T14:36:02.008Z,24.87
2022-10-24T14:38:29.335Z,24.83
2022-10-24T14:41:08.268Z,25.10
2022-10-24T14:43:39.923Z,22.95
2022-10-24T14:46:07.432Z,24.10
2022-10-24T14:48:35.327Z,24.08
2022-10-24T14:51:09.354Z,23.95
2022-10-24T14:53:37.561Z,21.67
2022-10-24T14:56:06.850Z,22.80
2022-10-24T14:58:34.370Z,21.62
2022-10-24T15:01:01.824Z,20.65
2022-10-24T15:03:29.486Z,21.12
2022-10-24T15:06:12.401Z,23.25
2022-10-24T15:11:17.534Z,23.33
2022-10-24T15:13:48.159Z,25.62
2022-10-24T15:16:26.430Z,21.42
2022-10-24T15:18:55.707Z,19.50
2022-10-24T15:21:25.342Z,20.15
2022-10-24T15:23:57.266Z,19.42
2022-10-24T15:26:46.225Z,26.33
2022-10-24T15:29:13.376Z,22.15
2022-10-24T15:31:43.087Z,26.77
2022-10-24T15:34:20.017Z,29.80
2022-10-24T15:36:48.321Z,28.75
2022-10-24T15:39:20.393Z,26.48
2022-10-24T15:41:48.231Z,25.45
2022-10-24T15:44:18.258Z,25.00
2022-10-24T15:46:45.698Z,22.80
2022-10-24T15:49:13.296Z,23.52
2022-10-24T15:51:44.573Z,21.17
2022-10-24T15:54:16.749Z,22.13
2022-10-24T15:56:44.050Z,20.92
2022-10-24T15:59:11.381Z,22.08
2022-10-24T16:01:44.783Z,22.37
2022-10-24T16:04:12.436Z,22.58
2022-10-24T16:06:39.854Z,22.13
2022-10-24T16:09:10.640Z,20.62
2022-10-24T16:11:38.222Z,20.05
2022-10-24T16:14:05.729Z,21.30
2022-10-24T16:16:33.043Z,23.40
2022-10-24T16:19:00.648Z,25.35
2022-10-24T16:21:27.956Z,34.17
2022-10-24T16:23:55.571Z,26.98
2022-10-24T16:26:23.207Z,29.40
2022-10-24T16:28:50.513Z,28.60
2022-10-24T16:31:23.548Z,30.85
2022-10-24T16:33:51.428Z,34.25
2022-10-24T16:36:20.900Z,29.80
2022-10-24T16:38:51.478Z,26.98
2022-10-24T16:41:20.718Z,28.35
2022-10-24T16:43:49.880Z,28.52
2022-10-24T16:46:20.105Z,27.62
2022-10-24T16:48:47.645Z,27.30
2022-10-24T16:51:17.142Z,31.00
2022-10-24T16:53:44.721Z,26.15
2022-10-24T16:56:12.670Z,27.33
2022-10-24T16:58:40.005Z,30.08
2022-10-24T17:01:09.606Z,30.65
2022-10-24T17:03:37.336Z,25.33
2022-10-24T17:06:04.952Z,27.20
2022-10-24T17:08:32.583Z,28.83
2022-10-24T17:11:00.826Z,27.27
2022-10-24T17:13:28.305Z,27.13
2022-10-24T17:15:56.519Z,26.95
2022-10-24T17:18:25.437Z,29.40
2022-10-24T17:20:58.822Z,28.77
2022-10-24T17:23:26.767Z,26.67
2022-10-24T17:25:54.507Z,27.37
2022-10-24T17:28:21.916Z,25.77
2022-10-24T17:30:49.619Z,22.92
2022-10-24T17:33:17.065Z,25.23
2022-10-24T17:35:50.895Z,26.08
2022-10-24T17:38:53.013Z,24.60
2022-10-24T17:41:23.086Z,23.75
2022-10-24T17:43:50.986Z,25.85
2022-10-24T17:46:18.656Z,24.00
2022-10-24T17:48:45.962Z,24.40
2022-10-24T17:51:15.768Z,23.77
2022-10-24T17:53:43.077Z,23.38
2022-10-24T17:58:42.955Z,24.80
2022-10-24T18:01:11.239Z,23.92
2022-10-24T18:03:38.998Z,24.05
2022-10-24T18:06:06.842Z,23.55
2022-10-24T18:08:34.191Z,24.25
2022-10-24T18:11:02.985Z,25.08
2022-10-24T18:13:30.395Z,23.83
2022-10-24T18:15:57.710Z,24.00
2022-10-24T18:18:25.268Z,23.30
2022-10-24T18:20:53.156Z,24.27
2022-10-24T18:23:20.483Z,22.73
2022-10-24T18:25:48.073Z,21.87
2022-10-24T18:28:15.491Z,23.23
2022-10-24T18:30:42.801Z,21.27
2022-10-24T18:33:10.409Z,22.23
2022-10-24T18:35:37.774Z,21.17
2022-10-24T18:38:05.174Z,21.62
2022-10-24T18:40:35.113Z,21.67
2022-10-24T18:43:05.126Z,20.65
2022-10-24T18:45:33.487Z,20.45
2022-10-24T18:48:01.122Z,21.50
2022-10-24T18:50:28.918Z,21.90
2022-10-24T18:53:03.568Z,27.13
2022-10-24T18:55:31.198Z,21.15
2022-10-24T18:57:58.967Z,22.40
2022-10-24T19:00:30.992Z,24.50
2022-10-24T19:03:23.789Z,22.92
2022-10-24T19:06:06.322Z,23.50
2022-10-24T19:08:33.940Z,22.73
2022-10-24T19:11:01.521Z,21.60
2022-10-24T19:13:28.927Z,26.15
2022-10-24T19:16:05.921Z,24.30
2022-10-24T19:18:34.329Z,25.55
2022-10-24T19:21:01.967Z,20.98
2022-10-24T19:23:29.304Z,26.48
2022-10-24T19:25:56.660Z,25.50
2022-10-24T19:28:24.251Z,21.80
2022-10-24T19:30:51.585Z,26.40
2022-10-24T19:33:19.057Z,27.02
2022-10-24T19:35:49.525Z,23.33
2022-10-24T19:38:17.192Z,22.77
2022-10-24T19:40:48.261Z,24.83
2022-10-24T19:43:15.873Z,25.98
2022-10-24T19:45:50.652Z,21.02
2022-10-24T19:48:30.798Z,23.85
2022-10-24T19:51:05.535Z,22.17
2022-10-24T19:53:36.185Z,24.17
2022-10-24T19:56:07.816Z,24.98
2022-10-24T19:58:35.430Z,20.90
2022-10-24T20:01:13.620Z,24.17
2022-10-24T20:03:42.925Z,26.75
2022-10-24T20:06:10.724Z,25.35
2022-10-24T20:08:38.080Z,24.17
2022-10-24T20:11:05.794Z,26.40
2022-10-24T20:13:33.200Z,24.75
2022-10-24T20:16:05.497Z,24.92
2022-10-24T20:18:34.533Z,22.77
2022-10-24T20:21:04.117Z,23.85
2022-10-24T20:23:31.724Z,24.02
2022-10-24T20:26:01.633Z,20.02
2022-10-24T20:28:29.047Z,24.83
2022-10-24T20:30:56.370Z,26.05
2022-10-24T20:33:23.949Z,28.67
2022-10-24T20:35:51.274Z,27.83
2022-10-24T20:38:18.841Z,28.73
2022-10-24T20:40:46.422Z,26.90
2022-10-24T20:43:13.777Z,31.27
2022-10-24T20:45:41.100Z,24.67
2022-10-24T20:48:08.786Z,31.70
2022-10-24T20:50:36.261Z,29.87
2022-10-24T20:53:03.608Z,30.73
2022-10-24T20:55:43.726Z,30.98
2022-10-24T20:58:13.445Z,31.75
2022-10-24T21:03:15.105Z,30.37
2022-10-24T21:05:42.727Z,32.08
2022-10-24T21:08:10.123Z,29.58
2022-10-24T21:10:37.453Z,35.28
2022-10-24T21:13:05.036Z,28.98
2022-10-24T21:15:32.361Z,33.42
2022-10-24T21:17:59.913Z,31.37
2022-10-24T21:20:27.627Z,33.03
2022-10-24T21:22:54.936Z,29.65
2022-10-24T21:25:22.251Z,31.95
2022-10-24T21:27:49.968Z,33.03
2022-10-24T21:30:17.410Z,32.75
2022-10-24T21:32:44.723Z,34.88
2022-10-24T21:35:12.294Z,31.50
2022-10-24T21:37:39.617Z,35.28
2022-10-24T21:40:07.402Z,29.87
2022-10-24T21:42:34.993Z,28.98
2022-10-24T21:45:02.312Z,33.05
2022-10-24T21:47:29.665Z,31.83
2022-10-24T21:49:57.244Z,29.25
2022-10-24T21:52:24.578Z,32.75
2022-10-24T21:54:51.900Z,32.58
2022-10-24T21:57:19.512Z,33.65
2022-10-24T21:59:46.825Z,33.45
2022-10-24T22:02:14.306Z,32.28
2022-10-24T22:04:41.954Z,31.62
2022-10-24T22:07:09.259Z,31.02
2022-10-24T22:09:36.572Z,33.15
2022-10-24T22:12:04.567Z,32.25
2022-10-24T22:14:31.901Z,33.10
2022-10-24T22:16:59.238Z,32.55
2022-10-24T22:19:26.804Z,31.15
2022-10-24T22:21:54.262Z,33.45
2022-10-24T22:24:22.715Z,34.25
2022-10-24T22:26:50.407Z,34.80
2022-10-24T22:29:19.853Z,33.72
2022-10-24T22:31:47.452Z,32.80
2022-10-24T22:34:16.207Z,29.02
2022-10-24T22:37:00.797Z,32.75
2022-10-24T22:39:28.680Z,32.75
2022-10-24T22:41:56.129Z,32.03
2022-10-24T22:44:23.799Z,35.30
2022-10-24T22:47:15.665Z,31.02
2022-10-24T22:50:13.986Z,34.22
2022-10-24T22:52:41.801Z,31.05
2022-10-24T22:55:39.973Z,30.25
2022-10-24T22:58:07.852Z,30.70
2022-10-24T23:00:35.468Z,36.53
2022-10-24T23:03:27.919Z,32.83
2022-10-24T23:06:04.304Z,33.15
2022-10-24T23:08:35.866Z,34.10
2022-10-24T23:11:03.762Z,31.60
2022-10-24T23:13:31.362Z,31.27
2022-10-24T23:16:04.222Z,29.95
2022-10-24T23:18:31.949Z,31.23
2022-10-24T23:21:30.830Z,30.95
2022-10-24T23:23:58.586Z,31.10
2022-10-24T23:27:14.905Z,30.65
2022-10-24T23:29:43.916Z,30.77
2022-10-24T23:32:34.080Z,30.62
2022-10-24T23:35:01.896Z,31.65
2022-10-24T23:37:42.511Z,29.63
2022-10-24T23:40:18.860Z,29.87
2022-10-24T23:42:47.218Z,30.12
2022-10-24T23:45:20.469Z,31.15
2022-10-24T23:48:25.308Z,33.38
2022-10-24T23:51:09.647Z,29.63
2022-10-24T23:53:50.046Z,31.95
2022-10-24T23:56:19.046Z,31.77
2022-10-24T23:58:46.362Z,31.50
